createdAt,value
2023-05-19T00:01:52.626Z,67.14
2023-05-19T00:04:19.401Z,66.16
2023-05-19T00:06:50.986Z,67.62
2023-05-19T00:09:17.968Z,67.00
2023-05-19T00:11:44.854Z,67.86
2023-05-19T00:14:11.699Z,66.97
2023-05-19T00:16:39.257Z,67.17
2023-05-19T00:19:06.660Z,66.95
2023-05-19T00:21:33.268Z,67.42
2023-05-19T00:23:59.858Z,68.89
2023-05-19T00:26:27.199Z,68.37
2023-05-19T00:29:04.478Z,68.03
2023-05-19T00:31:31.825Z,66.36
2023-05-19T00:33:58.480Z,66.95
2023-05-19T00:36:25.339Z,68.98
2023-05-19T00:38:51.976Z,69.37
2023-05-19T00:41:18.748Z,68.06
2023-05-19T00:43:45.600Z,68.54
2023-05-19T00:46:12.358Z,67.82
2023-05-19T00:48:39.262Z,67.23
2023-05-19T00:51:06.592Z,67.16
2023-05-19T00:53:34.776Z,68.27
2023-05-19T00:56:02.947Z,67.91
2023-05-19T00:58:32.459Z,68.35
2023-05-19T01:01:04.237Z,69.15
2023-05-19T01:03:32.568Z,68.01
2023-05-19T01:06:01.711Z,67.75
2023-05-19T01:08:29.340Z,67.98
2023-05-19T01:10:55.907Z,69.18
2023-05-19T01:13:22.769Z,68.37
2023-05-19T01:15:57.054Z,68.66
2023-05-19T01:18:35.713Z,68.91
2023-05-19T01:21:38.031Z,69.73
2023-05-19T01:24:09.737Z,69.83
2023-05-19T01:26:46.000Z,69.69
2023-05-19T01:29:32.231Z,69.19
2023-05-19T01:32:00.971Z,69.33
2023-05-19T01:34:27.863Z,68.83
2023-05-19T01:36:56.027Z,69.05
2023-05-19T01:39:24.638Z,68.35
2023-05-19T01:41:52.433Z,69.78
2023-05-19T01:44:20.028Z,70.32
2023-05-19T01:46:47.461Z,69.00
2023-05-19T01:49:14.235Z,69.97
2023-05-19T01:51:41.248Z,71.43
2023-05-19T01:54:07.909Z,70.77
2023-05-19T01:56:45.378Z,72.17
2023-05-19T01:59:24.704Z,70.06
2023-05-19T02:01:53.935Z,70.63
2023-05-19T02:04:41.973Z,71.30
2023-05-19T02:07:14.787Z,70.06
2023-05-19T02:09:59.347Z,70.79
2023-05-19T02:12:32.355Z,69.81
2023-05-19T02:15:12.338Z,68.97
2023-05-19T02:17:42.657Z,70.32
2023-05-19T02:20:10.612Z,69.05
2023-05-19T02:22:37.825Z,69.14
2023-05-19T02:25:04.987Z,68.85
2023-05-19T02:27:33.905Z,69.38
2023-05-19T02:30:03.554Z,69.78
2023-05-19T02:32:31.573Z,70.62
2023-05-19T02:34:58.362Z,70.37
2023-05-19T02:37:25.254Z,70.23
2023-05-19T02:39:51.817Z,71.19
2023-05-19T02:42:18.729Z,70.45
2023-05-19T02:44:45.425Z,70.62
2023-05-19T02:47:13.151Z,70.71
2023-05-19T02:49:40.199Z,71.46
2023-05-19T02:52:07.239Z,70.77
2023-05-19T02:54:34.983Z,70.29
2023-05-19T02:57:02.214Z,69.75
2023-05-19T02:59:28.881Z,69.83
2023-05-19T03:01:57.672Z,69.21
2023-05-19T03:04:24.378Z,69.36
2023-05-19T03:06:51.038Z,69.54
2023-05-19T03:09:17.731Z,71.09
2023-05-19T03:11:44.473Z,71.76
2023-05-19T03:14:12.121Z,72.57
2023-05-19T03:16:41.332Z,72.25
2023-05-19T03:19:09.301Z,72.66
2023-05-19T03:21:36.063Z,71.22
2023-05-19T03:24:02.955Z,71.83
2023-05-19T03:26:29.864Z,71.13
2023-05-19T03:28:57.038Z,71.91
2023-05-19T03:31:23.869Z,70.83
2023-05-19T03:33:50.694Z,70.82
2023-05-19T03:36:17.908Z,70.89
2023-05-19T03:38:44.513Z,71.29
2023-05-19T03:41:11.096Z,70.51
2023-05-19T03:43:37.926Z,71.02
2023-05-19T03:46:07.159Z,70.39
2023-05-19T03:48:42.627Z,71.09
2023-05-19T03:51:47.505Z,71.30
2023-05-19T03:54:33.006Z,71.45
2023-05-19T03:56:59.566Z,71.05
2023-05-19T03:59:26.151Z,73.71
2023-05-19T04:01:52.927Z,73.10
2023-05-19T04:04:19.934Z,71.30
2023-05-19T04:06:46.751Z,72.29
2023-05-19T04:09:15.791Z,73.10
2023-05-19T04:11:43.065Z,71.24
2023-05-19T04:14:09.934Z,71.57
2023-05-19T04:16:36.970Z,71.58
2023-05-19T04:19:03.675Z,70.52
2023-05-19T04:21:30.525Z,69.95
2023-05-19T04:23:59.175Z,69.60
2023-05-19T04:26:26.902Z,68.95
2023-05-19T04:28:56.714Z,68.46
2023-05-19T04:31:24.112Z,67.32
2023-05-19T04:33:50.829Z,67.30
2023-05-19T04:36:24.591Z,67.46
2023-05-19T04:38:55.023Z,66.82
2023-05-19T04:41:24.307Z,66.47
2023-05-19T04:43:51.160Z,66.00
2023-05-19T04:46:26.327Z,67.39
2023-05-19T04:48:55.412Z,66.06
2023-05-19T04:51:22.090Z,64.92
2023-05-19T04:53:49.173Z,64.21
2023-05-19T04:56:15.983Z,63.61
2023-05-19T04:58:44.662Z,63.34
2023-05-19T05:01:13.848Z,61.56
2023-05-19T05:03:40.754Z,62.10
2023-05-19T05:06:07.628Z,62.12
2023-05-19T05:08:34.974Z,61.42
2023-05-19T05:11:02.346Z,61.14
2023-05-19T05:13:29.311Z,60.28
2023-05-19T05:15:56.957Z,60.56
2023-05-19T05:18:23.936Z,59.49
2023-05-19T05:20:51.857Z,59.26
2023-05-19T05:23:19.912Z,59.45
2023-05-19T05:25:48.818Z,59.37
2023-05-19T05:28:16.460Z,58.34
2023-05-19T05:30:44.879Z,57.82
2023-05-19T05:33:13.505Z,57.11
2023-05-19T05:35:41.276Z,56.27
2023-05-19T05:38:11.689Z,56.29
2023-05-19T05:40:39.165Z,57.25
2023-05-19T05:43:06.191Z,56.59
2023-05-19T05:45:37.413Z,56.94
2023-05-19T05:48:05.527Z,55.76
2023-05-19T05:50:32.493Z,56.24
2023-05-19T05:53:01.416Z,57.00
2023-05-19T05:55:28.514Z,58.64
2023-05-19T05:57:56.870Z,55.68
2023-05-19T06:00:23.801Z,53.75
2023-05-19T06:02:52.882Z,54.19
2023-05-19T06:05:20.300Z,53.82
2023-05-19T06:07:48.234Z,52.71
2023-05-19T06:10:20.148Z,53.18
2023-05-19T06:12:48.956Z,53.37
2023-05-19T06:15:15.849Z,53.40
2023-05-19T06:18:05.869Z,54.43
2023-05-19T06:20:32.675Z,52.52
2023-05-19T06:23:00.804Z,51.42
2023-05-19T06:25:28.949Z,51.16
2023-05-19T06:27:56.539Z,51.76
2023-05-19T06:30:23.934Z,51.54
2023-05-19T06:33:13.939Z,52.00
2023-05-19T06:35:40.992Z,53.12
2023-05-19T06:38:07.807Z,52.55
2023-05-19T06:40:34.723Z,53.88
2023-05-19T06:43:01.583Z,52.14
2023-05-19T06:45:51.008Z,52.10
2023-05-19T06:48:18.216Z,50.70
2023-05-19T06:50:44.850Z,53.89
2023-05-19T06:53:12.882Z,52.60
2023-05-19T06:55:54.347Z,52.10
2023-05-19T06:58:27.067Z,51.58
2023-05-19T07:00:54.530Z,50.35
2023-05-19T07:03:22.456Z,49.16
2023-05-19T07:05:49.309Z,49.38
2023-05-19T07:08:16.355Z,47.86
2023-05-19T07:10:43.971Z,47.52
2023-05-19T07:13:13.267Z,47.32
2023-05-19T07:15:40.896Z,45.16
2023-05-19T07:18:07.645Z,46.30
2023-05-19T07:20:35.652Z,47.76
2023-05-19T07:23:02.758Z,47.29
2023-05-19T07:25:30.522Z,45.55
2023-05-19T07:27:57.450Z,44.77
2023-05-19T07:30:24.148Z,43.84
2023-05-19T07:32:50.874Z,43.11
2023-05-19T07:35:17.536Z,41.12
2023-05-19T07:37:44.173Z,40.65
2023-05-19T07:40:11.115Z,40.91
2023-05-19T07:42:38.142Z,39.67
2023-05-19T07:45:05.156Z,38.44
2023-05-19T07:47:31.895Z,38.43
2023-05-19T07:49:58.617Z,37.38
2023-05-19T07:52:25.303Z,36.22
2023-05-19T07:54:51.876Z,35.03
2023-05-19T07:57:18.969Z,34.35
2023-05-19T07:59:45.667Z,35.75
2023-05-19T08:02:12.407Z,32.62
2023-05-19T08:04:39.161Z,29.42
2023-05-19T08:07:05.868Z,29.30
2023-05-19T08:09:32.524Z,27.89
2023-05-19T08:11:59.193Z,28.89
2023-05-19T08:14:26.934Z,29.01
2023-05-19T08:16:53.581Z,28.22
2023-05-19T08:19:20.199Z,26.06
2023-05-19T08:21:48.387Z,26.06
2023-05-19T08:24:15.254Z,25.57
2023-05-19T08:26:41.908Z,22.78
2023-05-19T08:29:08.453Z,22.17
2023-05-19T08:31:35.193Z,22.24
2023-05-19T08:34:01.997Z,22.56
2023-05-19T08:36:29.482Z,22.02
2023-05-19T08:38:56.238Z,22.46
2023-05-19T08:41:23.346Z,21.64
2023-05-19T08:43:50.198Z,21.79
2023-05-19T08:46:17.210Z,21.89
2023-05-19T08:48:45.297Z,22.50
2023-05-19T08:51:33.842Z,24.05
2023-05-19T08:54:15.708Z,26.49
2023-05-19T08:56:44.881Z,23.63
2023-05-19T08:59:16.044Z,24.68
2023-05-19T09:01:46.462Z,24.11
2023-05-19T09:04:14.116Z,24.19
2023-05-19T09:06:41.161Z,23.70
2023-05-19T09:09:08.565Z,23.64
2023-05-19T09:11:37.654Z,23.96
2023-05-19T09:14:05.155Z,25.51
2023-05-19T09:16:34.024Z,24.64
2023-05-19T09:19:01.553Z,24.15
2023-05-19T09:21:32.373Z,24.95
2023-05-19T09:24:06.743Z,26.84
2023-05-19T09:26:38.541Z,28.60
2023-05-19T09:29:18.111Z,29.06
2023-05-19T09:32:01.015Z,28.00
2023-05-19T09:34:27.983Z,28.50
2023-05-19T09:36:54.617Z,27.67
2023-05-19T09:39:23.028Z,28.09
2023-05-19T09:41:58.496Z,29.42
2023-05-19T09:44:30.381Z,29.87
2023-05-19T09:47:00.936Z,29.63
2023-05-19T09:49:32.867Z,30.23
2023-05-19T09:52:03.301Z,28.80
2023-05-19T09:54:32.500Z,30.29
2023-05-19T09:57:07.059Z,30.27
2023-05-19T09:59:34.994Z,32.29
2023-05-19T10:02:02.543Z,31.44
2023-05-19T10:04:30.605Z,33.07
2023-05-19T10:07:01.307Z,32.32
2023-05-19T10:09:29.538Z,33.53
2023-05-19T10:11:57.919Z,34.59
2023-05-19T10:14:26.155Z,33.98
2023-05-19T10:16:59.128Z,33.92
2023-05-19T10:19:28.640Z,33.20
2023-05-19T10:21:56.262Z,32.75
2023-05-19T10:24:23.340Z,34.12
2023-05-19T10:26:56.686Z,34.33
2023-05-19T10:29:27.917Z,34.85
2023-05-19T10:31:57.248Z,33.97
2023-05-19T10:34:50.192Z,33.91
2023-05-19T10:37:23.868Z,34.27
2023-05-19T10:39:51.311Z,35.99
2023-05-19T10:42:40.985Z,34.48
2023-05-19T10:45:15.777Z,35.22
2023-05-19T10:47:42.552Z,33.27
2023-05-19T10:50:10.621Z,34.28
2023-05-19T10:52:38.799Z,33.17
2023-05-19T10:55:10.203Z,33.52
2023-05-19T10:57:37.091Z,33.83
2023-05-19T11:00:24.779Z,33.25
2023-05-19T11:02:56.252Z,33.67
2023-05-19T11:05:29.105Z,34.24
2023-05-19T11:08:02.219Z,33.69
2023-05-19T11:10:29.095Z,33.56
2023-05-19T11:15:31.074Z,35.19
2023-05-19T11:18:01.672Z,34.16
2023-05-19T11:20:30.686Z,33.02
2023-05-19T11:23:15.075Z,34.60
2023-05-19T11:25:47.221Z,33.35
2023-05-19T11:28:19.570Z,33.29
2023-05-19T11:30:50.698Z,32.71
2023-05-19T11:33:21.514Z,32.87
2023-05-19T11:35:50.408Z,32.86
2023-05-19T11:38:19.455Z,32.99
2023-05-19T11:40:47.695Z,33.47
2023-05-19T11:43:16.679Z,33.58
2023-05-19T11:45:43.687Z,33.38
2023-05-19T11:48:13.907Z,32.97
2023-05-19T11:50:41.742Z,33.79
2023-05-19T11:53:12.076Z,34.42
2023-05-19T11:55:43.596Z,35.29
2023-05-19T11:58:10.361Z,33.57
2023-05-19T12:00:39.563Z,32.98
2023-05-19T12:03:07.332Z,34.91
2023-05-19T12:05:42.951Z,32.26
2023-05-19T12:08:12.543Z,31.43
2023-05-19T12:10:40.552Z,32.59
2023-05-19T12:13:10.730Z,33.50
2023-05-19T12:15:38.754Z,33.14
2023-05-19T12:18:05.848Z,33.86
2023-05-19T12:20:35.386Z,33.88
2023-05-19T12:23:02.483Z,33.38
2023-05-19T12:25:31.039Z,32.55
2023-05-19T12:27:59.378Z,33.63
2023-05-19T12:30:30.162Z,33.30
2023-05-19T12:33:00.292Z,32.21
2023-05-19T12:35:33.178Z,32.39
2023-05-19T12:38:04.702Z,31.00
2023-05-19T12:40:31.588Z,31.97
2023-05-19T12:42:59.229Z,32.98
2023-05-19T12:45:28.243Z,33.46
2023-05-19T12:47:56.054Z,31.08
2023-05-19T12:50:30.473Z,33.12
2023-05-19T12:52:59.580Z,31.71
2023-05-19T12:55:26.319Z,29.99
2023-05-19T12:57:57.076Z,32.20
2023-05-19T13:00:32.832Z,29.91
2023-05-19T13:03:05.817Z,31.19
2023-05-19T13:05:38.558Z,31.42
2023-05-19T13:08:08.039Z,30.98
2023-05-19T13:10:36.638Z,32.52
2023-05-19T13:13:04.548Z,31.57
2023-05-19T13:15:37.648Z,30.68
2023-05-19T13:18:06.476Z,31.04
2023-05-19T13:20:34.284Z,32.42
2023-05-19T13:23:01.587Z,30.77
2023-05-19T13:25:28.447Z,31.68
2023-05-19T13:27:56.662Z,31.56
2023-05-19T13:30:23.766Z,32.62
2023-05-19T13:32:52.496Z,32.27
2023-05-19T13:35:19.687Z,31.45
2023-05-19T13:37:46.403Z,31.62
2023-05-19T13:40:13.597Z,32.33
2023-05-19T13:42:40.603Z,31.99
2023-05-19T13:45:07.784Z,32.72
2023-05-19T13:47:34.629Z,32.08
2023-05-19T13:50:03.042Z,31.93
2023-05-19T13:52:30.573Z,32.49
2023-05-19T13:54:57.657Z,33.14
2023-05-19T13:57:26.317Z,32.73
2023-05-19T14:00:02.468Z,33.25
2023-05-19T14:02:39.370Z,34.28
2023-05-19T14:05:07.411Z,33.58
2023-05-19T14:07:34.978Z,33.15
2023-05-19T14:10:02.908Z,33.07
2023-05-19T14:12:38.067Z,33.60
2023-05-19T14:15:14.498Z,33.34
2023-05-19T14:17:41.501Z,33.06
2023-05-19T14:20:08.756Z,32.98
2023-05-19T14:22:35.583Z,33.37
2023-05-19T14:25:02.381Z,32.44
2023-05-19T14:27:29.088Z,33.01
2023-05-19T14:29:55.737Z,32.22
2023-05-19T14:32:22.458Z,34.58
2023-05-19T14:34:52.808Z,32.57
2023-05-19T14:37:20.860Z,33.53
2023-05-19T14:39:47.494Z,33.17
2023-05-19T14:42:14.095Z,32.82
2023-05-19T14:44:40.755Z,33.37
2023-05-19T14:47:07.745Z,33.35
2023-05-19T14:49:34.496Z,34.12
2023-05-19T14:52:01.331Z,34.61
2023-05-19T14:54:28.160Z,33.33
2023-05-19T14:56:54.804Z,32.77
2023-05-19T14:59:21.837Z,33.24
2023-05-19T15:01:50.630Z,35.17
2023-05-19T15:04:17.297Z,34.27
2023-05-19T15:06:44.371Z,34.04
2023-05-19T15:09:14.600Z,34.30
2023-05-19T15:11:41.344Z,33.29
2023-05-19T15:14:08.044Z,34.22
2023-05-19T15:16:34.791Z,34.34
2023-05-19T15:19:01.529Z,33.89
2023-05-19T15:21:28.343Z,34.98
2023-05-19T15:23:55.043Z,34.59
2023-05-19T15:26:22.362Z,34.27
2023-05-19T15:28:49.695Z,34.84
2023-05-19T15:31:16.583Z,34.87
2023-05-19T15:33:43.206Z,35.83
2023-05-19T15:36:12.772Z,33.84
2023-05-19T15:38:39.360Z,34.29
2023-05-19T15:41:08.055Z,34.06
2023-05-19T15:43:34.960Z,34.18
2023-05-19T15:46:01.563Z,34.28
2023-05-19T15:48:29.019Z,34.70
2023-05-19T15:50:58.055Z,35.13
2023-05-19T15:53:25.372Z,35.10
2023-05-19T15:55:52.046Z,36.32
2023-05-19T15:58:18.651Z,35.92
2023-05-19T16:00:45.361Z,36.56
2023-05-19T16:03:12.226Z,36.77
2023-05-19T16:05:38.913Z,36.79
2023-05-19T16:08:07.110Z,36.48
2023-05-19T16:10:35.618Z,36.10
2023-05-19T16:13:02.612Z,36.00
2023-05-19T16:15:29.479Z,36.31
2023-05-19T16:17:56.897Z,36.21
2023-05-19T16:20:27.817Z,37.44
2023-05-19T16:22:55.443Z,36.44
2023-05-19T16:25:22.325Z,36.57
2023-05-19T16:27:49.130Z,36.99
2023-05-19T16:30:16.552Z,36.95
2023-05-19T16:32:43.338Z,36.99
2023-05-19T16:35:10.482Z,36.55
2023-05-19T16:37:37.156Z,36.76
2023-05-19T16:40:04.184Z,37.02
2023-05-19T16:42:31.927Z,36.84
2023-05-19T16:44:58.514Z,36.36
2023-05-19T16:47:25.094Z,36.96
2023-05-19T16:49:51.784Z,36.67
2023-05-19T16:52:18.511Z,36.82
2023-05-19T16:54:45.064Z,37.34
2023-05-19T16:57:14.293Z,37.17
2023-05-19T16:59:41.359Z,37.65
2023-05-19T17:02:08.556Z,37.01
2023-05-19T17:04:35.416Z,37.10
2023-05-19T17:07:02.048Z,36.91
2023-05-19T17:09:28.622Z,36.61
2023-05-19T17:11:58.227Z,37.24
2023-05-19T17:14:24.831Z,37.32
2023-05-19T17:16:52.688Z,37.96
2023-05-19T17:19:19.495Z,36.96
2023-05-19T17:21:46.444Z,37.34
2023-05-19T17:24:13.502Z,36.73
2023-05-19T17:26:40.152Z,37.04
2023-05-19T17:29:06.806Z,39.23
2023-05-19T17:31:33.484Z,37.85
2023-05-19T17:34:00.151Z,37.60
2023-05-19T17:36:26.829Z,37.15
2023-05-19T17:38:53.412Z,37.40
2023-05-19T17:41:20.116Z,38.39
2023-05-19T17:43:47.439Z,37.32
2023-05-19T17:46:17.195Z,38.38
2023-05-19T17:48:44.011Z,38.39
2023-05-19T17:51:11.439Z,38.75
2023-05-19T17:53:38.334Z,40.53
2023-05-19T17:56:07.370Z,40.87
2023-05-19T17:58:34.254Z,39.91
2023-05-19T18:01:01.025Z,38.95
2023-05-19T18:03:27.875Z,39.77
2023-05-19T18:05:54.772Z,39.39
2023-05-19T18:08:21.630Z,40.35
2023-05-19T18:10:51.259Z,40.18
2023-05-19T18:13:18.034Z,39.30
2023-05-19T18:15:44.621Z,41.19
2023-05-19T18:18:11.638Z,42.61
2023-05-19T18:20:39.383Z,42.85
2023-05-19T18:23:06.133Z,40.93
2023-05-19T18:25:32.901Z,40.18
2023-05-19T18:27:59.597Z,42.84
2023-05-19T18:30:26.176Z,40.43
2023-05-19T18:32:52.964Z,40.62
2023-05-19T18:35:21.098Z,40.95
2023-05-19T18:37:47.763Z,40.64
2023-05-19T18:40:14.391Z,40.71
2023-05-19T18:42:40.982Z,41.16
2023-05-19T18:45:08.099Z,40.88
2023-05-19T18:47:35.006Z,40.39
2023-05-19T18:50:02.049Z,41.39
2023-05-19T18:52:29.177Z,40.72
2023-05-19T18:54:56.207Z,42.85
2023-05-19T18:57:23.148Z,43.27
2023-05-19T18:59:49.775Z,43.23
2023-05-19T19:02:16.533Z,42.22
2023-05-19T19:04:43.609Z,43.03
2023-05-19T19:07:10.295Z,43.42
2023-05-19T19:09:37.081Z,42.32
2023-05-19T19:12:03.943Z,42.55
2023-05-19T19:14:31.010Z,43.42
2023-05-19T19:16:57.877Z,42.96
2023-05-19T19:19:24.881Z,43.25
2023-05-19T19:21:51.773Z,43.96
2023-05-19T19:24:18.464Z,45.82
2023-05-19T19:26:45.080Z,45.17
2023-05-19T19:29:11.943Z,45.09
2023-05-19T19:31:38.645Z,45.71
2023-05-19T19:34:09.220Z,47.08
2023-05-19T19:36:36.425Z,47.69
2023-05-19T19:39:03.390Z,48.49
2023-05-19T19:41:30.233Z,49.32
2023-05-19T19:43:56.866Z,50.14
2023-05-19T19:46:23.505Z,49.68
2023-05-19T19:48:50.160Z,49.35
2023-05-19T19:51:16.897Z,49.74
2023-05-19T19:53:43.610Z,50.10
2023-05-19T19:56:10.219Z,50.26
2023-05-19T19:58:37.200Z,50.84
2023-05-19T20:01:04.294Z,51.68
2023-05-19T20:03:31.713Z,52.05
2023-05-19T20:05:58.739Z,52.17
2023-05-19T20:08:26.426Z,52.57
2023-05-19T20:10:53.680Z,51.41
2023-05-19T20:13:20.930Z,51.58
2023-05-19T20:15:47.734Z,51.77
2023-05-19T20:18:14.482Z,51.70
2023-05-19T20:20:42.000Z,52.38
2023-05-19T20:23:09.245Z,53.89
2023-05-19T20:25:53.638Z,54.06
2023-05-19T20:28:28.276Z,52.48
2023-05-19T20:30:54.866Z,52.57
2023-05-19T20:33:21.448Z,54.40
2023-05-19T20:35:48.017Z,53.97
2023-05-19T20:38:14.690Z,52.96
2023-05-19T20:40:41.549Z,55.03
2023-05-19T20:43:08.214Z,53.88
2023-05-19T20:45:35.015Z,53.59
2023-05-19T20:48:02.778Z,56.53
2023-05-19T20:50:29.545Z,55.57
2023-05-19T20:52:56.373Z,54.94
2023-05-19T20:55:22.913Z,56.03
2023-05-19T20:57:49.652Z,55.93
2023-05-19T21:00:16.503Z,55.16
2023-05-19T21:02:43.391Z,55.03
2023-05-19T21:05:10.197Z,55.94
2023-05-19T21:07:36.962Z,54.33
2023-05-19T21:10:03.757Z,55.25
2023-05-19T21:12:33.980Z,53.26
2023-05-19T21:15:01.587Z,53.06
2023-05-19T21:17:28.428Z,53.95
2023-05-19T21:19:58.049Z,53.82
2023-05-19T21:22:26.375Z,53.26
2023-05-19T21:24:53.830Z,54.21
2023-05-19T21:27:20.668Z,53.64
2023-05-19T21:29:47.389Z,53.98
2023-05-19T21:32:14.074Z,52.90
2023-05-19T21:34:40.678Z,51.58
2023-05-19T21:37:07.300Z,52.73
2023-05-19T21:39:34.818Z,53.44
2023-05-19T21:42:01.531Z,54.77
2023-05-19T21:44:28.187Z,53.94
2023-05-19T21:46:55.014Z,53.43
2023-05-19T21:49:21.712Z,53.97
2023-05-19T21:51:48.327Z,53.87
2023-05-19T21:54:14.958Z,54.26
2023-05-19T21:56:41.596Z,55.04
2023-05-19T21:59:09.095Z,54.87
2023-05-19T22:01:35.656Z,56.53
2023-05-19T22:04:02.419Z,56.67
2023-05-19T22:06:29.206Z,56.97
2023-05-19T22:08:55.860Z,56.61
2023-05-19T22:11:22.742Z,57.23
2023-05-19T22:13:50.113Z,57.14
2023-05-19T22:16:16.739Z,59.07
2023-05-19T22:18:43.386Z,59.85
2023-05-19T22:21:10.017Z,61.89
2023-05-19T22:23:36.645Z,60.44
2023-05-19T22:26:03.281Z,60.83
2023-05-19T22:28:29.872Z,62.45
2023-05-19T22:30:56.514Z,61.77
2023-05-19T22:33:23.088Z,61.62
2023-05-19T22:35:49.713Z,61.40
2023-05-19T22:38:16.385Z,60.42
2023-05-19T22:40:42.996Z,60.60
2023-05-19T22:43:09.648Z,61.55
2023-05-19T22:45:36.602Z,61.29
2023-05-19T22:48:03.769Z,60.39
2023-05-19T22:50:30.405Z,62.39
2023-05-19T22:52:57.440Z,61.70
2023-05-19T22:55:24.156Z,62.10
2023-05-19T22:57:51.151Z,63.88
2023-05-19T23:00:20.708Z,62.53
2023-05-19T23:02:47.371Z,63.41
2023-05-19T23:05:14.046Z,63.85
2023-05-19T23:07:40.815Z,65.47
2023-05-19T23:10:07.854Z,65.31
2023-05-19T23:12:34.504Z,66.32
2023-05-19T23:15:01.183Z,64.94
2023-05-19T23:17:27.936Z,64.74
2023-05-19T23:19:54.543Z,64.72
2023-05-19T23:22:21.094Z,64.58
2023-05-19T23:24:47.826Z,66.01
2023-05-19T23:27:14.439Z,64.42
2023-05-19T23:29:40.982Z,65.02
2023-05-19T23:32:07.971Z,64.52
2023-05-19T23:34:34.578Z,65.80
2023-05-19T23:37:01.149Z,65.82
2023-05-19T23:39:27.929Z,67.65
2023-05-19T23:41:54.540Z,66.93
2023-05-19T23:44:21.183Z,66.91
2023-05-19T23:46:47.835Z,67.29
2023-05-19T23:49:14.646Z,66.65
2023-05-19T23:51:41.351Z,66.66
2023-05-19T23:54:07.929Z,67.37
2023-05-19T23:56:34.559Z,67.95
2023-05-19T23:59:01.296Z,68.53
